createdAt,value
2023-01-20T00:01:16.577Z,32.92
2023-01-20T00:03:44.581Z,33.43
2023-01-20T00:06:12.529Z,35.85
2023-01-20T00:11:08.805Z,37.88
2023-01-20T00:13:36.429Z,32.17
2023-01-20T00:16:05.377Z,33.83
2023-01-20T00:18:33.664Z,34.25
2023-01-20T00:21:09.239Z,36.15
2023-01-20T00:23:36.408Z,34.90
2023-01-20T00:26:14.383Z,33.73
2023-01-20T00:28:41.153Z,40.70
2023-01-20T00:31:12.283Z,33.78
2023-01-20T00:36:06.563Z,36.83
2023-01-20T00:38:34.847Z,36.13
2023-01-20T00:41:01.583Z,32.50
2023-01-20T00:43:28.698Z,37.00
2023-01-20T00:45:55.697Z,34.42
2023-01-20T00:48:22.543Z,39.83
2023-01-20T00:50:49.560Z,36.42
2023-01-20T00:53:16.303Z,35.13
2023-01-20T00:55:43.056Z,37.63
2023-01-20T00:58:10.343Z,38.00
2023-01-20T01:00:37.544Z,36.95
2023-01-20T01:03:05.791Z,37.78
2023-01-20T01:05:33.503Z,39.45
2023-01-20T01:08:00.262Z,39.65
2023-01-20T01:10:26.981Z,38.05
2023-01-20T01:12:53.823Z,40.70
2023-01-20T01:15:20.748Z,34.38
2023-01-20T01:17:47.710Z,37.60
2023-01-20T01:20:14.451Z,36.50
2023-01-20T01:22:41.253Z,44.15
2023-01-20T01:25:08.095Z,46.70
2023-01-20T01:27:34.861Z,34.10
2023-01-20T01:30:01.562Z,35.03
2023-01-20T01:32:30.976Z,35.90
2023-01-20T01:34:57.710Z,37.53
2023-01-20T01:37:24.528Z,32.88
2023-01-20T01:39:51.267Z,39.80
2023-01-20T01:42:20.666Z,36.75
2023-01-20T01:45:12.634Z,36.67
2023-01-20T01:47:42.012Z,36.97
2023-01-20T01:50:16.417Z,38.60
2023-01-20T01:52:46.893Z,32.08
2023-01-20T01:55:19.499Z,32.40
2023-01-20T01:57:47.631Z,35.03
2023-01-20T02:00:14.687Z,37.40
2023-01-20T02:02:47.230Z,31.58
2023-01-20T02:05:16.431Z,33.58
2023-01-20T02:07:49.713Z,35.42
2023-01-20T02:10:17.244Z,32.75
2023-01-20T02:12:47.579Z,35.85
2023-01-20T02:15:14.865Z,34.10
2023-01-20T02:18:02.983Z,34.60
2023-01-20T02:20:40.758Z,32.83
2023-01-20T02:23:11.349Z,33.58
2023-01-20T02:25:41.993Z,36.15
2023-01-20T02:28:37.476Z,31.02
2023-01-20T02:31:10.491Z,37.08
2023-01-20T02:33:41.805Z,37.85
2023-01-20T02:36:37.845Z,35.03
2023-01-20T02:39:27.107Z,35.85
2023-01-20T02:42:08.946Z,40.50
2023-01-20T02:44:41.755Z,34.63
2023-01-20T02:47:12.742Z,34.30
2023-01-20T02:49:41.658Z,34.92
2023-01-20T02:52:21.749Z,38.42
2023-01-20T02:54:52.619Z,37.13
2023-01-20T02:57:26.184Z,37.13
2023-01-20T02:59:57.610Z,36.00
2023-01-20T03:02:28.703Z,39.17
2023-01-20T03:05:10.237Z,37.53
2023-01-20T03:07:41.804Z,43.17
2023-01-20T03:10:14.781Z,39.97
2023-01-20T03:12:50.429Z,38.22
2023-01-20T03:15:23.965Z,39.90
2023-01-20T03:17:51.198Z,42.75
2023-01-20T03:20:18.019Z,45.15
2023-01-20T03:22:44.863Z,41.97
2023-01-20T03:25:13.981Z,49.10
2023-01-20T03:27:41.811Z,35.60
2023-01-20T03:30:14.312Z,39.13
2023-01-20T03:32:41.920Z,41.25
2023-01-20T03:35:09.634Z,44.03
2023-01-20T03:37:36.542Z,42.05
2023-01-20T03:40:05.051Z,44.40
2023-01-20T03:45:10.540Z,41.80
2023-01-20T03:47:41.757Z,42.15
2023-01-20T03:50:41.697Z,47.53
2023-01-20T03:53:28.249Z,45.40
2023-01-20T03:56:08.138Z,39.05
2023-01-20T03:58:39.431Z,46.47
2023-01-20T04:01:18.555Z,49.17
2023-01-20T04:03:50.959Z,42.97
2023-01-20T04:06:21.596Z,42.95
2023-01-20T04:08:59.472Z,43.75
2023-01-20T04:11:27.329Z,42.50
2023-01-20T04:13:55.043Z,49.17
2023-01-20T04:16:23.161Z,43.78
2023-01-20T04:18:52.209Z,43.17
2023-01-20T04:21:25.105Z,44.22
2023-01-20T04:24:14.502Z,44.05
2023-01-20T04:26:41.409Z,44.97
2023-01-20T04:29:13.122Z,43.60
2023-01-20T04:34:07.021Z,46.43
2023-01-20T04:36:33.878Z,38.08
2023-01-20T04:39:00.538Z,43.40
2023-01-20T04:41:27.284Z,43.67
2023-01-20T04:43:53.926Z,36.40
2023-01-20T04:46:20.641Z,38.17
2023-01-20T04:48:47.385Z,33.43
2023-01-20T04:51:14.451Z,32.83
2023-01-20T04:53:41.596Z,34.43
2023-01-20T04:56:13.392Z,32.20
2023-01-20T04:58:41.868Z,35.17
2023-01-20T05:01:09.693Z,26.35
2023-01-20T05:03:36.950Z,34.57
2023-01-20T05:06:03.857Z,35.57
2023-01-20T05:08:30.651Z,28.00
2023-01-20T05:10:57.347Z,25.95
2023-01-20T05:13:24.072Z,25.67
2023-01-20T05:15:50.800Z,21.13
2023-01-20T05:18:17.621Z,20.15
2023-01-20T05:20:49.111Z,22.15
2023-01-20T05:23:16.752Z,18.23
2023-01-20T05:25:49.500Z,35.23
2023-01-20T05:28:16.363Z,20.23
2023-01-20T05:30:43.206Z,20.67
2023-01-20T05:33:10.112Z,21.45
2023-01-20T05:35:38.528Z,22.55
2023-01-20T05:38:05.427Z,30.87
2023-01-20T05:40:32.418Z,30.58
2023-01-20T05:43:02.272Z,24.60
2023-01-20T05:45:32.634Z,24.73
2023-01-20T05:48:00.894Z,32.92
2023-01-20T05:50:29.837Z,34.50
2023-01-20T05:52:56.887Z,32.90
2023-01-20T05:55:23.652Z,32.83
2023-01-20T05:57:54.112Z,24.35
2023-01-20T06:00:21.706Z,27.80
2023-01-20T06:02:48.436Z,27.20
2023-01-20T06:05:15.443Z,26.67
2023-01-20T06:07:42.393Z,27.10
2023-01-20T06:10:09.771Z,24.27
2023-01-20T06:12:36.669Z,23.70
2023-01-20T06:15:07.288Z,24.43
2023-01-20T06:17:34.591Z,24.40
2023-01-20T06:20:01.564Z,22.90
2023-01-20T06:22:28.529Z,32.25
2023-01-20T06:24:55.331Z,20.15
2023-01-20T06:27:22.623Z,29.15
2023-01-20T06:29:51.060Z,23.05
2023-01-20T06:32:18.665Z,19.80
2023-01-20T06:34:46.158Z,18.60
2023-01-20T06:37:12.855Z,27.02
2023-01-20T06:42:07.483Z,22.63
2023-01-20T06:44:34.383Z,27.42
2023-01-20T06:47:01.979Z,24.40
2023-01-20T06:49:28.641Z,26.27
2023-01-20T06:51:58.175Z,30.07
2023-01-20T06:54:24.841Z,30.20
2023-01-20T06:56:51.573Z,35.90
2023-01-20T06:59:18.304Z,37.77
2023-01-20T07:01:45.557Z,41.23
2023-01-20T07:04:13.862Z,31.02
2023-01-20T07:06:40.854Z,36.67
2023-01-20T07:09:13.343Z,43.17
2023-01-20T07:14:07.318Z,39.57
2023-01-20T07:16:34.956Z,39.00
2023-01-20T07:19:01.873Z,44.88
2023-01-20T07:21:29.241Z,50.63
2023-01-20T07:23:56.248Z,44.73
2023-01-20T07:26:27.217Z,48.40
2023-01-20T07:28:54.259Z,47.20
2023-01-20T07:31:23.597Z,52.83
2023-01-20T07:33:50.974Z,55.25
2023-01-20T07:36:18.318Z,49.03
2023-01-20T07:38:51.937Z,49.60
2023-01-20T07:41:20.259Z,52.67
2023-01-20T07:43:49.811Z,52.13
2023-01-20T07:46:17.335Z,49.42
2023-01-20T07:48:44.065Z,51.22
2023-01-20T07:51:13.223Z,55.83
2023-01-20T07:53:41.813Z,53.63
2023-01-20T07:56:11.650Z,55.65
2023-01-20T07:58:38.947Z,49.47
2023-01-20T08:01:30.211Z,51.80
2023-01-20T08:03:58.389Z,54.53
2023-01-20T08:06:26.780Z,57.17
2023-01-20T08:08:54.087Z,51.70
2023-01-20T08:11:22.121Z,52.90
2023-01-20T08:13:49.437Z,49.92
2023-01-20T08:16:18.106Z,54.42
2023-01-20T08:18:45.324Z,53.47
2023-01-20T08:21:19.143Z,53.42
2023-01-20T08:23:45.881Z,44.40
2023-01-20T08:26:12.744Z,60.65
2023-01-20T08:28:39.506Z,53.67
2023-01-20T08:31:10.591Z,53.53
2023-01-20T08:33:37.776Z,54.80
2023-01-20T08:36:19.864Z,53.78
2023-01-20T08:38:47.135Z,50.15
2023-01-20T08:41:22.917Z,53.78
2023-01-20T08:43:50.489Z,48.30
2023-01-20T08:46:19.094Z,50.20
2023-01-20T08:48:47.656Z,50.97
2023-01-20T08:51:18.004Z,55.80
2023-01-20T08:53:44.757Z,48.42
2023-01-20T08:56:12.967Z,46.35
2023-01-20T08:58:42.119Z,42.60
2023-01-20T09:01:14.337Z,45.63
2023-01-20T09:03:45.032Z,45.45
2023-01-20T09:06:16.637Z,63.75
2023-01-20T09:08:43.814Z,66.45
2023-01-20T09:11:16.626Z,68.18
2023-01-20T09:13:43.634Z,62.13
2023-01-20T09:16:15.537Z,55.07
2023-01-20T09:18:43.331Z,49.67
2023-01-20T09:21:10.801Z,49.83
2023-01-20T09:26:07.850Z,48.75
2023-01-20T09:28:35.106Z,41.10
2023-01-20T09:31:07.549Z,45.33
2023-01-20T09:33:36.360Z,56.80
2023-01-20T09:36:04.516Z,63.72
2023-01-20T09:41:36.148Z,46.45
2023-01-20T09:44:33.375Z,33.23
2023-01-20T09:47:31.019Z,35.65
2023-01-20T09:50:38.760Z,42.03
2023-01-20T09:53:15.698Z,45.75
2023-01-20T09:55:53.410Z,40.75
2023-01-20T09:58:30.881Z,50.47
2023-01-20T10:01:04.409Z,47.33
2023-01-20T10:06:20.592Z,44.40
2023-01-20T10:09:08.006Z,44.30
2023-01-20T10:11:41.935Z,55.58
2023-01-20T10:14:17.567Z,54.45
2023-01-20T10:17:12.878Z,62.95
2023-01-20T10:19:42.603Z,55.78
2023-01-20T10:22:27.187Z,45.28
2023-01-20T10:24:59.740Z,43.10
2023-01-20T10:27:30.070Z,44.67
2023-01-20T10:30:13.502Z,38.67
2023-01-20T10:32:40.980Z,40.92
2023-01-20T10:35:15.898Z,38.92
2023-01-20T10:37:43.061Z,38.05
2023-01-20T10:40:19.264Z,40.42
2023-01-20T10:42:55.662Z,38.30
2023-01-20T10:45:41.987Z,38.67
2023-01-20T10:48:33.077Z,39.05
2023-01-20T10:51:14.849Z,32.95
2023-01-20T10:53:59.914Z,37.20
2023-01-20T10:56:35.284Z,36.10
2023-01-20T10:59:12.865Z,36.40
2023-01-20T11:04:06.479Z,27.45
2023-01-20T11:06:33.543Z,35.75
2023-01-20T11:09:16.589Z,37.47
2023-01-20T11:11:46.400Z,31.83
2023-01-20T11:14:13.297Z,39.08
2023-01-20T11:16:41.989Z,39.08
2023-01-20T11:19:08.743Z,35.55
2023-01-20T11:21:37.163Z,32.67
2023-01-20T11:24:36.475Z,34.72
2023-01-20T11:27:11.957Z,39.30
2023-01-20T11:29:42.092Z,33.90
2023-01-20T11:32:25.779Z,35.55
2023-01-20T11:34:54.109Z,32.70
2023-01-20T11:37:26.656Z,34.63
2023-01-20T11:39:53.213Z,34.72
2023-01-20T11:42:27.995Z,39.88
2023-01-20T11:45:20.277Z,33.58
2023-01-20T11:48:02.140Z,30.15
2023-01-20T11:50:38.108Z,30.92
2023-01-20T11:53:18.225Z,34.08
2023-01-20T11:56:18.590Z,36.53
2023-01-20T11:59:02.053Z,35.75
2023-01-20T12:01:42.115Z,33.72
2023-01-20T12:04:18.105Z,32.75
2023-01-20T12:06:56.033Z,32.78
2023-01-20T12:09:30.506Z,31.92
2023-01-20T12:12:06.499Z,28.08
2023-01-20T12:14:41.985Z,36.45
2023-01-20T12:17:33.240Z,33.22
2023-01-20T12:20:03.463Z,32.60
2023-01-20T12:22:41.994Z,30.10
2023-01-20T12:25:24.190Z,29.98
2023-01-20T12:28:12.320Z,34.65
2023-01-20T12:30:43.165Z,32.78
2023-01-20T12:33:20.995Z,30.80
2023-01-20T12:36:21.990Z,34.08
2023-01-20T12:39:19.535Z,33.17
2023-01-20T12:41:58.817Z,33.35
2023-01-20T12:44:35.715Z,32.45
2023-01-20T12:47:33.527Z,33.67
2023-01-20T12:50:12.340Z,32.22
2023-01-20T12:52:44.856Z,32.33
2023-01-20T12:55:11.717Z,38.72
2023-01-20T12:57:43.468Z,34.92
2023-01-20T13:00:34.257Z,31.92
2023-01-20T13:03:24.907Z,36.53
2023-01-20T13:06:08.399Z,42.00
2023-01-20T13:08:42.077Z,34.65
2023-01-20T13:11:17.835Z,33.80
2023-01-20T13:14:09.312Z,34.03
2023-01-20T13:16:42.834Z,59.67
2023-01-20T13:19:14.566Z,42.00
2023-01-20T13:21:41.158Z,38.97
2023-01-20T13:24:18.882Z,37.67
2023-01-20T13:26:48.719Z,29.13
2023-01-20T13:29:42.170Z,31.58
2023-01-20T13:32:42.698Z,29.65
2023-01-20T13:35:18.647Z,32.25
2023-01-20T13:37:51.408Z,29.23
2023-01-20T13:40:45.307Z,31.98
2023-01-20T13:43:26.902Z,26.77
2023-01-20T13:46:06.032Z,27.38
2023-01-20T13:48:35.559Z,28.48
2023-01-20T13:51:26.852Z,28.35
2023-01-20T13:53:53.966Z,30.13
2023-01-20T13:56:35.470Z,32.58
2023-01-20T13:59:02.211Z,28.38
2023-01-20T14:01:29.357Z,32.65
2023-01-20T14:04:04.387Z,34.38
2023-01-20T14:06:33.403Z,34.03
2023-01-20T14:09:01.655Z,30.38
2023-01-20T14:11:30.512Z,28.15
2023-01-20T14:14:02.152Z,29.90
2023-01-20T14:16:36.664Z,27.95
2023-01-20T14:19:28.061Z,28.60
2023-01-20T14:21:57.780Z,27.98
2023-01-20T14:24:27.347Z,28.33
2023-01-20T14:27:07.116Z,26.08
2023-01-20T14:29:33.904Z,28.83
2023-01-20T14:32:00.651Z,32.58
2023-01-20T14:34:32.433Z,36.53
2023-01-20T14:37:03.627Z,33.22
2023-01-20T14:39:31.077Z,29.83
2023-01-20T14:42:00.129Z,32.45
2023-01-20T14:44:29.642Z,28.17
2023-01-20T14:47:02.011Z,28.88
2023-01-20T14:52:09.120Z,36.95
2023-01-20T14:57:18.484Z,35.05
2023-01-20T14:59:45.613Z,38.92
2023-01-20T15:02:31.313Z,41.15
2023-01-20T15:04:58.503Z,34.75
2023-01-20T15:07:25.839Z,35.15
2023-01-20T15:10:08.523Z,40.67
2023-01-20T15:12:42.048Z,47.40
2023-01-20T15:15:12.038Z,40.85
2023-01-20T15:17:41.101Z,41.35
2023-01-20T15:20:32.236Z,37.35
2023-01-20T15:23:02.289Z,37.22
2023-01-20T15:25:29.524Z,41.80
2023-01-20T15:27:57.316Z,42.92
2023-01-20T15:30:27.696Z,41.63
2023-01-20T15:32:55.346Z,43.92
2023-01-20T15:35:26.373Z,43.30
2023-01-20T15:37:53.535Z,42.85
2023-01-20T15:40:22.674Z,49.35
2023-01-20T15:42:51.180Z,39.25
2023-01-20T15:45:18.714Z,42.28
2023-01-20T15:47:46.771Z,42.17
2023-01-20T15:50:18.784Z,38.00
2023-01-20T15:52:48.868Z,44.13
2023-01-20T15:55:17.349Z,41.37
2023-01-20T15:57:46.447Z,36.15
2023-01-20T16:00:18.825Z,44.33
2023-01-20T16:02:45.843Z,43.67
2023-01-20T16:05:15.767Z,46.87
2023-01-20T16:07:44.476Z,43.73
2023-01-20T16:10:16.711Z,43.60
2023-01-20T16:12:44.446Z,49.03
2023-01-20T16:15:16.898Z,39.47
2023-01-20T16:17:43.854Z,46.23
2023-01-20T16:20:22.168Z,45.83
2023-01-20T16:22:48.960Z,43.53
2023-01-20T16:25:16.115Z,40.20
2023-01-20T16:27:42.996Z,47.20
2023-01-20T16:30:26.308Z,48.97
2023-01-20T16:32:53.191Z,49.43
2023-01-20T16:35:21.463Z,49.37
2023-01-20T16:37:48.368Z,46.60
2023-01-20T16:40:18.350Z,49.17
2023-01-20T16:42:46.227Z,52.37
2023-01-20T16:45:32.005Z,51.40
2023-01-20T16:47:58.868Z,46.47
2023-01-20T16:50:28.431Z,46.23
2023-01-20T16:52:55.651Z,49.17
2023-01-20T16:55:24.105Z,51.37
2023-01-20T16:57:51.270Z,56.87
2023-01-20T17:00:19.539Z,49.83
2023-01-20T17:02:50.988Z,51.70
2023-01-20T17:05:22.472Z,54.70
2023-01-20T17:07:50.383Z,59.17
2023-01-20T17:10:18.452Z,54.33
2023-01-20T17:12:48.725Z,54.73
2023-01-20T17:15:15.817Z,57.87
2023-01-20T17:17:43.711Z,52.13
2023-01-20T17:20:10.827Z,60.27
2023-01-20T17:22:39.382Z,51.93
2023-01-20T17:25:08.616Z,48.17
2023-01-20T17:27:36.946Z,56.87
2023-01-20T17:30:07.692Z,59.67
2023-01-20T17:32:35.357Z,57.97
2023-01-20T17:35:02.193Z,58.83
2023-01-20T17:37:28.863Z,52.93
2023-01-20T17:39:55.576Z,52.13
2023-01-20T17:42:22.453Z,60.43
2023-01-20T17:44:49.173Z,47.87
2023-01-20T17:47:15.819Z,55.83
2023-01-20T17:49:42.618Z,61.23
2023-01-20T17:52:09.327Z,55.23
2023-01-20T17:54:35.959Z,58.13
2023-01-20T17:57:02.692Z,54.90
2023-01-20T17:59:29.579Z,55.90
2023-01-20T18:01:57.086Z,64.40
2023-01-20T18:04:23.712Z,69.17
2023-01-20T18:06:50.412Z,67.03
2023-01-20T18:09:17.171Z,54.27
2023-01-20T18:11:44.227Z,64.37
2023-01-20T18:14:11.301Z,62.40
2023-01-20T18:16:42.191Z,60.37
2023-01-20T18:19:14.180Z,59.30
2023-01-20T18:21:42.228Z,62.90
2023-01-20T18:24:10.355Z,61.10
2023-01-20T18:26:38.745Z,57.83
2023-01-20T18:29:14.059Z,59.17
2023-01-20T18:31:42.453Z,57.30
2023-01-20T18:34:11.468Z,63.90
2023-01-20T18:36:42.173Z,70.43
2023-01-20T18:39:12.608Z,61.93
2023-01-20T18:41:42.257Z,65.73
2023-01-20T18:44:09.953Z,74.03
2023-01-20T18:46:37.113Z,62.87
2023-01-20T18:49:04.686Z,68.30
2023-01-20T18:51:34.882Z,68.30
2023-01-20T18:54:07.532Z,71.30
2023-01-20T18:56:34.942Z,69.83
2023-01-20T18:59:03.149Z,66.97
2023-01-20T19:01:34.059Z,67.90
2023-01-20T19:04:02.662Z,72.43
2023-01-20T19:06:31.741Z,64.93
2023-01-20T19:08:59.577Z,63.07
2023-01-20T19:11:32.354Z,73.23
2023-01-20T19:14:02.096Z,79.17
2023-01-20T19:16:36.194Z,64.90
2023-01-20T19:19:05.134Z,86.10
2023-01-20T19:21:33.419Z,78.63
2023-01-20T19:24:06.063Z,74.63
2023-01-20T19:26:35.777Z,77.93
2023-01-20T19:29:05.798Z,72.57
2023-01-20T19:31:35.105Z,71.60
2023-01-20T19:34:02.211Z,67.20
2023-01-20T19:36:29.276Z,65.30
2023-01-20T19:38:55.961Z,66.77
2023-01-20T19:41:28.427Z,64.90
2023-01-20T19:43:57.499Z,60.50
2023-01-20T19:46:26.836Z,55.20
2023-01-20T19:48:56.559Z,52.37
2023-01-20T19:51:24.322Z,50.90
2023-01-20T19:53:57.550Z,55.33
2023-01-20T19:56:30.003Z,55.77
2023-01-20T19:58:57.634Z,50.20
2023-01-20T20:01:31.636Z,48.40
2023-01-20T20:03:59.093Z,53.87
2023-01-20T20:06:34.569Z,44.67
2023-01-20T20:09:07.576Z,42.37
2023-01-20T20:11:35.259Z,47.83
2023-01-20T20:14:04.251Z,50.87
2023-01-20T20:16:33.516Z,46.00
2023-01-20T20:19:00.653Z,45.43
2023-01-20T20:21:28.068Z,48.07
2023-01-20T20:23:57.545Z,53.33
2023-01-20T20:26:27.677Z,45.63
2023-01-20T20:28:54.740Z,48.33
2023-01-20T20:31:22.704Z,53.80
2023-01-20T20:33:49.525Z,47.90
2023-01-20T20:36:17.290Z,53.20
2023-01-20T20:38:51.228Z,50.67
2023-01-20T20:41:27.676Z,50.57
2023-01-20T20:43:56.676Z,53.13
2023-01-20T20:46:23.590Z,60.70
2023-01-20T20:48:53.887Z,56.37
2023-01-20T20:51:21.214Z,52.43
2023-01-20T20:53:48.248Z,54.33
2023-01-20T20:56:16.604Z,64.50
2023-01-20T20:59:00.020Z,57.90
2023-01-20T21:01:29.644Z,46.03
2023-01-20T21:03:58.137Z,56.80
2023-01-20T21:06:25.663Z,56.20
2023-01-20T21:08:53.352Z,53.97
2023-01-20T21:11:20.705Z,55.17
2023-01-20T21:13:50.728Z,64.40
2023-01-20T21:16:22.408Z,75.43
2023-01-20T21:18:50.392Z,71.77
2023-01-20T21:21:17.372Z,65.90
2023-01-20T21:23:48.608Z,81.87
2023-01-20T21:26:15.504Z,61.23
2023-01-20T21:28:43.215Z,73.53
2023-01-20T21:31:12.557Z,70.37
2023-01-20T21:33:42.379Z,70.87
2023-01-20T21:36:12.493Z,73.87
2023-01-20T21:41:10.008Z,65.53
2023-01-20T21:43:42.235Z,79.60
2023-01-20T21:46:08.956Z,74.63
2023-01-20T21:48:42.272Z,71.00
2023-01-20T21:51:42.283Z,64.10
2023-01-20T21:54:09.096Z,66.93
2023-01-20T21:56:35.740Z,67.30
2023-01-20T21:59:06.100Z,82.57
2023-01-20T22:01:32.824Z,77.40
2023-01-20T22:03:59.831Z,68.33
2023-01-20T22:06:26.610Z,76.13
2023-01-20T22:08:53.470Z,70.97
2023-01-20T22:11:20.191Z,78.47
2023-01-20T22:13:46.954Z,76.30
2023-01-20T22:16:13.701Z,80.37
2023-01-20T22:21:07.768Z,70.13
2023-01-20T22:23:37.841Z,63.17
2023-01-20T22:26:05.452Z,77.10
2023-01-20T22:31:09.977Z,64.20
2023-01-20T22:33:36.806Z,72.70
2023-01-20T22:36:04.725Z,71.63
2023-01-20T22:38:32.067Z,69.07
2023-01-20T22:41:08.120Z,69.47
2023-01-20T22:43:37.879Z,67.57
2023-01-20T22:46:05.452Z,72.67
2023-01-20T22:48:34.072Z,81.20
2023-01-20T22:51:04.971Z,81.73
2023-01-20T22:53:31.833Z,81.20
2023-01-20T22:56:04.158Z,85.90
2023-01-20T22:58:31.673Z,82.00
2023-01-20T23:00:59.327Z,77.03
2023-01-20T23:03:29.741Z,82.27
2023-01-20T23:05:59.129Z,82.87
2023-01-20T23:08:27.450Z,83.00
2023-01-20T23:11:00.426Z,92.83
2023-01-20T23:13:29.190Z,88.90
2023-01-20T23:15:59.359Z,83.27
2023-01-20T23:18:26.224Z,86.67
2023-01-20T23:20:54.761Z,79.40
2023-01-20T23:23:22.187Z,78.83
2023-01-20T23:25:48.929Z,80.43
2023-01-20T23:28:16.113Z,87.80
2023-01-20T23:30:43.563Z,80.07
2023-01-20T23:33:11.324Z,69.80
2023-01-20T23:35:39.339Z,67.23
2023-01-20T23:38:06.969Z,69.10
2023-01-20T23:40:34.629Z,70.10
2023-01-20T23:43:01.589Z,52.83
2023-01-20T23:45:29.055Z,61.30
2023-01-20T23:47:56.428Z,65.63
2023-01-20T23:50:23.664Z,53.07
2023-01-20T23:52:50.580Z,63.87
2023-01-20T23:55:21.295Z,56.37
2023-01-20T23:57:48.321Z,59.50
